sensor_id;sensor_type;location;lat;lon;timestamp;pressure;altitude;pressure_sealevel;temperature;humidity
43681;BME280;29281;50.356;30.894;2023-09-19T07:16:28;100626.33;;;35.61;26.70
43681;BME280;29281;50.356;30.894;2023-09-19T07:17:32;100617.84;;;35.24;26.55
43681;BME280;29281;50.356;30.894;2023-09-19T07:18:35;100628.19;;;35.12;26.71
43681;BME280;29281;50.356;30.894;2023-09-19T07:19:41;100620.05;;;34.67;27.08
43681;BME280;29281;50.356;30.894;2023-09-19T07:20:48;100617.49;;;35.38;26.59
43681;BME280;29281;50.356;30.894;2023-09-19T07:21:56;100623.44;;;35.73;26.56
43681;BME280;29281;50.356;30.894;2023-09-19T07:23:00;100624.28;;;35.74;26.32
43681;BME280;29281;50.356;30.894;2023-09-19T07:24:04;100623.25;;;35.80;25.92
43681;BME280;29281;50.356;30.894;2023-09-19T07:25:08;100626.31;;;34.63;26.64
43681;BME280;29281;50.356;30.894;2023-09-19T07:26:12;100624.77;;;36.19;25.82
43681;BME280;29281;50.356;30.894;2023-09-19T07:27:18;100629.80;;;35.74;25.72
43681;BME280;29281;50.356;30.894;2023-09-19T07:28:22;100624.39;;;34.63;26.45
43681;BME280;29281;50.356;30.894;2023-09-19T07:29:30;100613.77;;;34.38;26.65
43681;BME280;29281;50.356;30.894;2023-09-19T07:30:35;100611.01;;;34.55;27.20
43681;BME280;29281;50.356;30.894;2023-09-19T07:31:40;100620.73;;;35.13;26.78
43681;BME280;29281;50.356;30.894;2023-09-19T07:32:45;100622.86;;;35.71;26.37
43681;BME280;29281;50.356;30.894;2023-09-19T07:33:49;100613.72;;;36.51;24.87
43681;BME280;29281;50.356;30.894;2023-09-19T07:34:53;100616.20;;;36.53;25.07
43681;BME280;29281;50.356;30.894;2023-09-19T07:35:57;100623.73;;;35.99;25.00
43681;BME280;29281;50.356;30.894;2023-09-19T07:37:04;100616.20;;;36.53;25.38
43681;BME280;29281;50.356;30.894;2023-09-19T07:38:09;100620.43;;;37.03;24.45
43681;BME280;29281;50.356;30.894;2023-09-19T07:39:15;100629.11;;;37.74;23.60
43681;BME280;29281;50.356;30.894;2023-09-19T07:40:21;100629.63;;;37.65;23.32
43681;BME280;29281;50.356;30.894;2023-09-19T07:41:24;100626.00;;;36.66;23.76
43681;BME280;29281;50.356;30.894;2023-09-19T07:42:28;100627.86;;;36.92;24.01
43681;BME280;29281;50.356;30.894;2023-09-19T07:43:31;100625.74;;;36.08;24.90
43681;BME280;29281;50.356;30.894;2023-09-19T07:44:37;100620.44;;;36.28;24.61
43681;BME280;29281;50.356;30.894;2023-09-19T07:59:55;100622.03;;;35.71;24.79
43681;BME280;29281;50.356;30.894;2023-09-19T08:01:04;100612.58;;;35.23;25.30
43681;BME280;29281;50.356;30.894;2023-09-19T08:02:09;100607.83;;;36.43;24.23
43681;BME280;29281;50.356;30.894;2023-09-19T08:03:15;100609.10;;;36.67;24.09
43681;BME280;29281;50.356;30.894;2023-09-19T08:04:20;100603.92;;;36.39;24.58
43681;BME280;29281;50.356;30.894;2023-09-19T08:05:31;100611.06;;;37.14;23.92
43681;BME280;29281;50.356;30.894;2023-09-19T08:06:37;100613.87;;;36.35;24.61
43681;BME280;29281;50.356;30.894;2023-09-19T08:07:43;100610.56;;;36.11;24.71
43681;BME280;29281;50.356;30.894;2023-09-19T08:08:50;100603.66;;;36.40;24.46
43681;BME280;29281;50.356;30.894;2023-09-19T08:09:57;100602.17;;;35.74;24.72
43681;BME280;29281;50.356;30.894;2023-09-19T08:11:03;100604.73;;;35.15;25.82
43681;BME280;29281;50.356;30.894;2023-09-19T08:12:21;100609.58;;;34.86;25.53
43681;BME280;29281;50.356;30.894;2023-09-19T08:13:25;100600.93;;;34.99;26.15
43681;BME280;29281;50.356;30.894;2023-09-19T08:14:29;100593.61;;;34.88;26.11
43681;BME280;29281;50.356;30.894;2023-09-19T08:15:32;100588.12;;;35.10;25.84
43681;BME280;29281;50.356;30.894;2023-09-19T08:16:37;100585.08;;;34.89;26.01
43681;BME280;29281;50.356;30.894;2023-09-19T08:17:44;100579.13;;;34.98;26.15
43681;BME280;29281;50.356;30.894;2023-09-19T08:18:51;100582.97;;;35.18;25.67
43681;BME280;29281;50.356;30.894;2023-09-19T08:19:59;100588.72;;;35.34;26.05
43681;BME280;29281;50.356;30.894;2023-09-19T08:21:04;100582.60;;;34.21;26.40
43681;BME280;29281;50.356;30.894;2023-09-19T08:22:11;100582.63;;;33.93;27.13
43681;BME280;29281;50.356;30.894;2023-09-19T08:23:14;100580.64;;;33.08;28.01
43681;BME280;29281;50.356;30.894;2023-09-19T08:24:28;100568.20;;;32.24;29.06
43681;BME280;29281;50.356;30.894;2023-09-19T08:25:35;100574.67;;;32.29;29.17
43681;BME280;29281;50.356;30.894;2023-09-19T08:26:39;100568.00;;;32.37;29.41
43681;BME280;29281;50.356;30.894;2023-09-19T08:27:46;100561.19;;;32.51;29.16
43681;BME280;29281;50.356;30.894;2023-09-19T08:28:50;100570.06;;;32.11;29.69
43681;BME280;29281;50.356;30.894;2023-09-19T08:29:55;100564.48;;;31.46;29.79
43681;BME280;29281;50.356;30.894;2023-09-19T08:31:06;100558.08;;;31.34;30.00
43681;BME280;29281;50.356;30.894;2023-09-19T08:32:10;100571.84;;;31.16;30.83
43681;BME280;29281;50.356;30.894;2023-09-19T08:33:12;100548.17;;;30.11;31.58
43681;BME280;29281;50.356;30.894;2023-09-19T08:34:19;100556.17;;;30.62;30.47
43681;BME280;29281;50.356;30.894;2023-09-19T08:35:27;100556.41;;;30.35;31.06
43681;BME280;29281;50.356;30.894;2023-09-19T08:36:31;100546.94;;;30.56;30.89
43681;BME280;29281;50.356;30.894;2023-09-19T08:37:37;100547.58;;;30.76;30.89
43681;BME280;29281;50.356;30.894;2023-09-19T08:38:45;100555.67;;;31.26;30.86
43681;BME280;29281;50.356;30.894;2023-09-19T08:39:49;100550.23;;;31.01;29.92
43681;BME280;29281;50.356;30.894;2023-09-19T08:40:52;100547.11;;;30.61;31.04
43681;BME280;29281;50.356;30.894;2023-09-19T08:41:57;100544.02;;;30.51;31.38
43681;BME280;29281;50.356;30.894;2023-09-19T08:43:21;100544.98;;;30.14;31.35
43681;BME280;29281;50.356;30.894;2023-09-19T08:44:26;100533.30;;;29.68;32.07
43681;BME280;29281;50.356;30.894;2023-09-19T08:45:33;100521.97;;;30.21;32.58
43681;BME280;29281;50.356;30.894;2023-09-19T08:46:36;100530.09;;;29.78;31.91
43681;BME280;29281;50.356;30.894;2023-09-19T08:47:45;100530.28;;;30.33;32.74
43681;BME280;29281;50.356;30.894;2023-09-19T08:49:05;100543.75;;;30.59;31.23
43681;BME280;29281;50.356;30.894;2023-09-19T08:50:11;100535.27;;;30.18;32.45
43681;BME280;29281;50.356;30.894;2023-09-19T08:51:22;100524.24;;;29.68;31.64
43681;BME280;29281;50.356;30.894;2023-09-19T08:52:27;100529.72;;;29.30;31.96
43681;BME280;29281;50.356;30.894;2023-09-19T08:54:52;100525.56;;;29.90;31.80
43681;BME280;29281;50.356;30.894;2023-09-19T08:56:04;100527.56;;;30.08;31.21
43681;BME280;29281;50.356;30.894;2023-09-19T08:57:10;100532.19;;;29.45;31.64
43681;BME280;29281;50.356;30.894;2023-09-19T08:58:14;100525.08;;;29.30;32.11
43681;BME280;29281;50.356;30.894;2023-09-19T08:59:24;100516.66;;;29.70;32.09
43681;BME280;29281;50.356;30.894;2023-09-19T09:00:37;100525.49;;;30.03;31.74
43681;BME280;29281;50.356;30.894;2023-09-19T09:01:43;100524.77;;;29.52;31.07
43681;BME280;29281;50.356;30.894;2023-09-19T09:02:47;100515.20;;;29.29;31.31
43681;BME280;29281;50.356;30.894;2023-09-19T09:03:53;100517.47;;;28.88;31.44
43681;BME280;29281;50.356;30.894;2023-09-19T09:04:56;100519.96;;;29.02;32.58
43681;BME280;29281;50.356;30.894;2023-09-19T09:06:03;100520.75;;;29.10;31.63
43681;BME280;29281;50.356;30.894;2023-09-19T09:07:10;100516.95;;;29.87;30.94
43681;BME280;29281;50.356;30.894;2023-09-19T09:08:16;100519.28;;;30.15;30.79
43681;BME280;29281;50.356;30.894;2023-09-19T09:09:24;100507.61;;;29.31;31.45
43681;BME280;29281;50.356;30.894;2023-09-19T09:10:24;100521.58;;;29.17;31.18
43681;BME280;29281;50.356;30.894;2023-09-19T09:11:28;100513.47;;;28.90;31.71
43681;BME280;29281;50.356;30.894;2023-09-19T09:12:34;100497.55;;;29.19;32.40
43681;BME280;29281;50.356;30.894;2023-09-19T09:13:47;100506.33;;;29.72;31.30
43681;BME280;29281;50.356;30.894;2023-09-19T09:14:51;100519.01;;;29.22;31.15
43681;BME280;29281;50.356;30.894;2023-09-19T09:15:56;100499.09;;;29.08;31.99
43681;BME280;29281;50.356;30.894;2023-09-19T09:16:59;100496.45;;;29.33;30.77
43681;BME280;29281;50.356;30.894;2023-09-19T09:18:07;100507.70;;;29.12;30.49
43681;BME280;29281;50.356;30.894;2023-09-19T09:19:09;100503.80;;;28.88;31.15
43681;BME280;29281;50.356;30.894;2023-09-19T09:20:14;100499.84;;;28.84;31.39
43681;BME280;29281;50.356;30.894;2023-09-19T09:21:25;100503.30;;;28.40;31.25
43681;BME280;29281;50.356;30.894;2023-09-19T09:22:33;100500.77;;;28.31;32.26
43681;BME280;29281;50.356;30.894;2023-09-19T09:23:37;100488.58;;;28.34;32.06
43681;BME280;29281;50.356;30.894;2023-09-19T09:24:53;100495.23;;;28.64;31.48
43681;BME280;29281;50.356;30.894;2023-09-19T09:25:58;100497.06;;;28.90;31.91
43681;BME280;29281;50.356;30.894;2023-09-19T09:27:03;100493.42;;;29.03;31.50
43681;BME280;29281;50.356;30.894;2023-09-19T09:28:10;100499.21;;;28.82;31.85
43681;BME280;29281;50.356;30.894;2023-09-19T09:29:14;100496.45;;;28.75;31.44
43681;BME280;29281;50.356;30.894;2023-09-19T09:30:33;100492.72;;;28.63;31.29
43681;BME280;29281;50.356;30.894;2023-09-19T09:31:39;100495.66;;;28.68;31.76
43681;BME280;29281;50.356;30.894;2023-09-19T09:32:49;100490.65;;;28.52;31.88
43681;BME280;29281;50.356;30.894;2023-09-19T09:33:56;100488.25;;;28.75;31.99
43681;BME280;29281;50.356;30.894;2023-09-19T09:35:01;100491.99;;;29.00;31.19
43681;BME280;29281;50.356;30.894;2023-09-19T09:36:05;100489.25;;;29.45;31.42
43681;BME280;29281;50.356;30.894;2023-09-19T09:37:16;100480.36;;;29.12;31.38
43681;BME280;29281;50.356;30.894;2023-09-19T09:38:42;100471.81;;;28.95;31.20
43681;BME280;29281;50.356;30.894;2023-09-19T09:39:38;100488.47;;;28.74;31.87
43681;BME280;29281;50.356;30.894;2023-09-19T09:40:51;100490.86;;;28.57;32.37
43681;BME280;29281;50.356;30.894;2023-09-19T09:42:03;100487.45;;;28.68;30.93
43681;BME280;29281;50.356;30.894;2023-09-19T09:43:26;100471.06;;;28.61;31.19
43681;BME280;29281;50.356;30.894;2023-09-19T09:44:31;100485.85;;;28.41;31.19
43681;BME280;29281;50.356;30.894;2023-09-19T09:45:38;100478.21;;;28.62;31.59
43681;BME280;29281;50.356;30.894;2023-09-19T09:46:43;100476.89;;;28.78;31.25
43681;BME280;29281;50.356;30.894;2023-09-19T09:47:56;100474.47;;;28.50;31.41
43681;BME280;29281;50.356;30.894;2023-09-19T09:49:02;100471.28;;;28.60;31.58
43681;BME280;29281;50.356;30.894;2023-09-19T09:50:27;100475.42;;;28.76;32.02
43681;BME280;29281;50.356;30.894;2023-09-19T09:51:32;100463.33;;;28.45;31.97
43681;BME280;29281;50.356;30.894;2023-09-19T09:52:46;100470.91;;;29.08;31.46
43681;BME280;29281;50.356;30.894;2023-09-19T09:53:47;100468.87;;;28.96;31.14
43681;BME280;29281;50.356;30.894;2023-09-19T09:55:01;100473.16;;;28.66;31.31
43681;BME280;29281;50.356;30.894;2023-09-19T09:56:09;100475.26;;;28.70;31.01
43681;BME280;29281;50.356;30.894;2023-09-19T09:57:15;100462.20;;;28.86;30.78
43681;BME280;29281;50.356;30.894;2023-09-19T09:58:23;100468.22;;;29.01;30.89
43681;BME280;29281;50.356;30.894;2023-09-19T09:59:46;100468.17;;;29.08;30.76
43681;BME280;29281;50.356;30.894;2023-09-19T10:00:54;100462.95;;;29.37;30.12
43681;BME280;29281;50.356;30.894;2023-09-19T10:02:06;100475.52;;;29.14;30.93
43681;BME280;29281;50.356;30.894;2023-09-19T10:03:21;100479.16;;;29.01;30.58
43681;BME280;29281;50.356;30.894;2023-09-19T10:04:27;100468.26;;;28.88;30.52
43681;BME280;29281;50.356;30.894;2023-09-19T10:05:39;100466.97;;;28.97;30.01
43681;BME280;29281;50.356;30.894;2023-09-19T10:06:50;100463.61;;;28.24;30.90
43681;BME280;29281;50.356;30.894;2023-09-19T10:08:10;100466.75;;;28.08;31.31
43681;BME280;29281;50.356;30.894;2023-09-19T10:09:09;100464.28;;;28.77;30.87
43681;BME280;29281;50.356;30.894;2023-09-19T10:10:29;100470.06;;;29.07;30.41
43681;BME280;29281;50.356;30.894;2023-09-19T10:11:33;100467.27;;;29.58;30.82
43681;BME280;29281;50.356;30.894;2023-09-19T10:12:41;100462.93;;;29.76;30.38
43681;BME280;29281;50.356;30.894;2023-09-19T10:13:47;100455.58;;;29.38;30.86
43681;BME280;29281;50.356;30.894;2023-09-19T10:14:51;100459.51;;;28.59;30.95
43681;BME280;29281;50.356;30.894;2023-09-19T10:15:59;100454.83;;;28.73;30.32
43681;BME280;29281;50.356;30.894;2023-09-19T10:17:08;100458.66;;;28.65;31.18
43681;BME280;29281;50.356;30.894;2023-09-19T10:18:14;100459.47;;;28.79;30.20
43681;BME280;29281;50.356;30.894;2023-09-19T10:20:29;100467.55;;;29.05;30.84
43681;BME280;29281;50.356;30.894;2023-09-19T10:21:41;100465.31;;;28.89;30.36
43681;BME280;29281;50.356;30.894;2023-09-19T10:22:50;100457.35;;;28.75;30.87
43681;BME280;29281;50.356;30.894;2023-09-19T10:24:01;100456.35;;;28.62;31.78
43681;BME280;29281;50.356;30.894;2023-09-19T10:25:08;100450.05;;;28.62;30.54
43681;BME280;29281;50.356;30.894;2023-09-19T10:26:17;100446.89;;;28.65;30.77
43681;BME280;29281;50.356;30.894;2023-09-19T10:27:22;100450.30;;;28.47;31.55
43681;BME280;29281;50.356;30.894;2023-09-19T10:28:30;100445.84;;;28.59;31.78
43681;BME280;29281;50.356;30.894;2023-09-19T10:29:38;100448.41;;;28.54;31.27
43681;BME280;29281;50.356;30.894;2023-09-19T10:30:44;100444.78;;;28.67;31.10
43681;BME280;29281;50.356;30.894;2023-09-19T10:31:49;100439.08;;;28.82;31.35
43681;BME280;29281;50.356;30.894;2023-09-19T10:33:00;100438.67;;;28.72;31.81
43681;BME280;29281;50.356;30.894;2023-09-19T10:34:06;100433.85;;;28.67;30.78
43681;BME280;29281;50.356;30.894;2023-09-19T10:35:15;100422.88;;;28.87;30.98
43681;BME280;29281;50.356;30.894;2023-09-19T10:36:24;100432.86;;;28.55;30.93
43681;BME280;29281;50.356;30.894;2023-09-19T10:37:31;100429.75;;;28.96;31.52
43681;BME280;29281;50.356;30.894;2023-09-19T10:38:38;100430.25;;;28.80;31.52
43681;BME280;29281;50.356;30.894;2023-09-19T10:39:46;100420.52;;;28.90;31.52
43681;BME280;29281;50.356;30.894;2023-09-19T10:40:53;100432.91;;;28.93;31.78
43681;BME280;29281;50.356;30.894;2023-09-19T10:42:01;100420.73;;;28.89;31.82
43681;BME280;29281;50.356;30.894;2023-09-19T10:43:11;100426.13;;;28.51;31.01
43681;BME280;29281;50.356;30.894;2023-09-19T10:44:13;100425.44;;;28.68;31.31
43681;BME280;29281;50.356;30.894;2023-09-19T10:45:17;100428.62;;;29.10;31.84
43681;BME280;29281;50.356;30.894;2023-09-19T10:46:23;100431.96;;;28.67;30.82
43681;BME280;29281;50.356;30.894;2023-09-19T10:47:27;100420.89;;;28.43;30.87
43681;BME280;29281;50.356;30.894;2023-09-19T10:48:36;100421.84;;;28.81;30.85
43681;BME280;29281;50.356;30.894;2023-09-19T10:49:44;100420.67;;;28.51;30.79
43681;BME280;29281;50.356;30.894;2023-09-19T10:50:51;100416.94;;;28.39;30.35
43681;BME280;29281;50.356;30.894;2023-09-19T10:51:55;100419.63;;;28.45;31.01
43681;BME280;29281;50.356;30.894;2023-09-19T10:53:04;100416.05;;;28.51;30.26
43681;BME280;29281;50.356;30.894;2023-09-19T10:54:11;100422.98;;;28.47;30.44
43681;BME280;29281;50.356;30.894;2023-09-19T10:55:17;100411.52;;;28.25;31.25
43681;BME280;29281;50.356;30.894;2023-09-19T10:56:29;100417.98;;;28.31;31.54
43681;BME280;29281;50.356;30.894;2023-09-19T10:57:31;100411.91;;;28.16;31.74
43681;BME280;29281;50.356;30.894;2023-09-19T10:58:37;100412.05;;;28.54;31.13
43681;BME280;29281;50.356;30.894;2023-09-19T11:00:00;100415.41;;;28.56;30.26
43681;BME280;29281;50.356;30.894;2023-09-19T11:00:58;100410.20;;;28.41;30.21
43681;BME280;29281;50.356;30.894;2023-09-19T11:02:21;100404.99;;;28.78;30.96
43681;BME280;29281;50.356;30.894;2023-09-19T11:03:27;100412.19;;;29.17;30.36
43681;BME280;29281;50.356;30.894;2023-09-19T11:04:35;100405.48;;;28.61;30.62
43681;BME280;29281;50.356;30.894;2023-09-19T11:05:42;100405.26;;;28.69;30.47
43681;BME280;29281;50.356;30.894;2023-09-19T11:06:59;100403.09;;;28.78;31.34
43681;BME280;29281;50.356;30.894;2023-09-19T11:07:57;100393.01;;;28.79;30.07
43681;BME280;29281;50.356;30.894;2023-09-19T11:09:06;100408.91;;;29.01;32.16
43681;BME280;29281;50.356;30.894;2023-09-19T11:10:43;100401.97;;;28.48;29.99
43681;BME280;29281;50.356;30.894;2023-09-19T11:14:13;100400.08;;;28.48;30.73
43681;BME280;29281;50.356;30.894;2023-09-19T11:14:58;100394.77;;;28.60;30.03
43681;BME280;29281;50.356;30.894;2023-09-19T11:22:50;100384.58;;;28.35;30.65
43681;BME280;29281;50.356;30.894;2023-09-19T11:23:33;100387.14;;;28.24;30.55
43681;BME280;29281;50.356;30.894;2023-09-19T11:24:38;100389.56;;;28.52;30.80
43681;BME280;29281;50.356;30.894;2023-09-19T11:25:41;100378.28;;;28.28;30.19
43681;BME280;29281;50.356;30.894;2023-09-19T11:26:48;100386.69;;;28.27;30.53
43681;BME280;29281;50.356;30.894;2023-09-19T11:29:29;100389.64;;;28.12;31.01
43681;BME280;29281;50.356;30.894;2023-09-19T11:30:35;100379.70;;;28.44;30.50
43681;BME280;29281;50.356;30.894;2023-09-19T11:31:46;100383.98;;;28.85;31.22
43681;BME280;29281;50.356;30.894;2023-09-19T11:33:36;100383.31;;;28.38;30.19
43681;BME280;29281;50.356;30.894;2023-09-19T11:35:58;100374.12;;;28.26;30.17
43681;BME280;29281;50.356;30.894;2023-09-19T11:36:35;100374.49;;;28.36;30.42
43681;BME280;29281;50.356;30.894;2023-09-19T11:40:07;100376.59;;;28.34;30.19
43681;BME280;29281;50.356;30.894;2023-09-19T11:42:41;100367.20;;;28.10;30.16
43681;BME280;29281;50.356;30.894;2023-09-19T11:43:48;100363.77;;;28.41;30.73
43681;BME280;29281;50.356;30.894;2023-09-19T11:44:54;100359.73;;;28.44;31.13
43681;BME280;29281;50.356;30.894;2023-09-19T11:46:03;100353.94;;;28.14;30.61
43681;BME280;29281;50.356;30.894;2023-09-19T11:47:08;100352.70;;;28.23;30.51
43681;BME280;29281;50.356;30.894;2023-09-19T11:48:20;100374.34;;;27.98;30.57
43681;BME280;29281;50.356;30.894;2023-09-19T11:49:29;100357.16;;;27.84;30.97
43681;BME280;29281;50.356;30.894;2023-09-19T11:50:36;100350.41;;;28.07;31.62
43681;BME280;29281;50.356;30.894;2023-09-19T11:51:40;100356.70;;;28.00;30.89
43681;BME280;29281;50.356;30.894;2023-09-19T11:52:45;100356.08;;;27.98;31.25
43681;BME280;29281;50.356;30.894;2023-09-19T11:53:50;100346.06;;;27.79;31.39
43681;BME280;29281;50.356;30.894;2023-09-19T11:54:56;100343.88;;;28.21;31.60
43681;BME280;29281;50.356;30.894;2023-09-19T11:56:00;100353.70;;;28.28;30.72
43681;BME280;29281;50.356;30.894;2023-09-19T11:57:04;100341.79;;;28.10;30.99
43681;BME280;29281;50.356;30.894;2023-09-19T11:58:07;100338.86;;;27.98;30.47
43681;BME280;29281;50.356;30.894;2023-09-19T11:59:11;100353.34;;;28.05;30.53
43681;BME280;29281;50.356;30.894;2023-09-19T12:00:17;100343.68;;;28.09;30.36
43681;BME280;29281;50.356;30.894;2023-09-19T12:01:24;100343.93;;;27.94;30.70
43681;BME280;29281;50.356;30.894;2023-09-19T12:02:34;100340.28;;;28.14;30.32
43681;BME280;29281;50.356;30.894;2023-09-19T12:03:38;100338.64;;;28.06;30.82
43681;BME280;29281;50.356;30.894;2023-09-19T12:04:47;100335.43;;;28.29;31.40
43681;BME280;29281;50.356;30.894;2023-09-19T12:05:53;100343.45;;;28.24;30.92
43681;BME280;29281;50.356;30.894;2023-09-19T12:06:56;100339.86;;;28.17;31.36
43681;BME280;29281;50.356;30.894;2023-09-19T12:08:01;100335.26;;;28.24;30.68
43681;BME280;29281;50.356;30.894;2023-09-19T12:09:11;100336.45;;;28.41;31.00
43681;BME280;29281;50.356;30.894;2023-09-19T12:10:13;100340.73;;;28.11;30.46
43681;BME280;29281;50.356;30.894;2023-09-19T12:11:19;100332.55;;;28.11;31.85
43681;BME280;29281;50.356;30.894;2023-09-19T12:12:24;100337.45;;;27.76;31.57
43681;BME280;29281;50.356;30.894;2023-09-19T12:13:30;100341.41;;;27.86;31.50
43681;BME280;29281;50.356;30.894;2023-09-19T12:14:36;100335.08;;;27.99;31.61
43681;BME280;29281;50.356;30.894;2023-09-19T12:15:42;100336.16;;;27.91;30.92
43681;BME280;29281;50.356;30.894;2023-09-19T12:16:56;100323.31;;;27.98;32.03
43681;BME280;29281;50.356;30.894;2023-09-19T12:18:00;100331.33;;;27.93;31.18
43681;BME280;29281;50.356;30.894;2023-09-19T12:19:19;100319.13;;;27.96;31.32
43681;BME280;29281;50.356;30.894;2023-09-19T12:20:40;100327.72;;;28.06;30.97
43681;BME280;29281;50.356;30.894;2023-09-19T12:21:30;100313.84;;;28.21;31.37
43681;BME280;29281;50.356;30.894;2023-09-19T12:22:45;100328.60;;;27.93;31.33
43681;BME280;29281;50.356;30.894;2023-09-19T12:25:06;100320.38;;;28.07;31.77
43681;BME280;29281;50.356;30.894;2023-09-19T12:26:10;100313.23;;;27.99;30.63
43681;BME280;29281;50.356;30.894;2023-09-19T12:27:18;100321.42;;;27.99;31.89
43681;BME280;29281;50.356;30.894;2023-09-19T12:28:27;100318.60;;;28.39;31.76
43681;BME280;29281;50.356;30.894;2023-09-19T12:29:30;100324.34;;;28.62;30.88
43681;BME280;29281;50.356;30.894;2023-09-19T12:30:33;100313.16;;;28.32;31.48
43681;BME280;29281;50.356;30.894;2023-09-19T12:31:48;100320.75;;;28.17;30.76
43681;BME280;29281;50.356;30.894;2023-09-19T12:32:54;100315.59;;;27.95;31.39
43681;BME280;29281;50.356;30.894;2023-09-19T12:34:02;100313.61;;;28.16;32.01
43681;BME280;29281;50.356;30.894;2023-09-19T12:35:06;100311.50;;;28.18;31.66
43681;BME280;29281;50.356;30.894;2023-09-19T12:36:21;100313.58;;;28.29;30.77
43681;BME280;29281;50.356;30.894;2023-09-19T12:37:34;100308.44;;;28.52;31.38
43681;BME280;29281;50.356;30.894;2023-09-19T12:38:41;100306.35;;;28.48;30.96
43681;BME280;29281;50.356;30.894;2023-09-19T12:39:49;100308.31;;;28.34;30.36
43681;BME280;29281;50.356;30.894;2023-09-19T12:40:56;100300.11;;;28.41;30.36
43681;BME280;29281;50.356;30.894;2023-09-19T12:42:04;100304.33;;;28.30;30.06
43681;BME280;29281;50.356;30.894;2023-09-19T12:43:10;100296.86;;;27.99;29.71
43681;BME280;29281;50.356;30.894;2023-09-19T12:44:17;100306.14;;;27.85;30.32
43681;BME280;29281;50.356;30.894;2023-09-19T12:45:24;100299.84;;;27.91;30.22
43681;BME280;29281;50.356;30.894;2023-09-19T12:46:27;100307.41;;;27.82;29.77
43681;BME280;29281;50.356;30.894;2023-09-19T12:47:31;100296.90;;;27.92;30.41
43681;BME280;29281;50.356;30.894;2023-09-19T12:48:38;100298.45;;;28.26;31.12
43681;BME280;29281;50.356;30.894;2023-09-19T12:51:09;100299.59;;;27.99;30.44
43681;BME280;29281;50.356;30.894;2023-09-19T12:52:22;100300.85;;;27.96;31.03
43681;BME280;29281;50.356;30.894;2023-09-19T12:53:29;100301.60;;;28.30;30.20
43681;BME280;29281;50.356;30.894;2023-09-19T12:54:41;100300.03;;;28.54;30.30
43681;BME280;29281;50.356;30.894;2023-09-19T12:55:47;100297.94;;;28.49;29.70
43681;BME280;29281;50.356;30.894;2023-09-19T12:56:53;100293.82;;;28.33;29.08
43681;BME280;29281;50.356;30.894;2023-09-19T12:59:12;100290.73;;;28.23;29.44
43681;BME280;29281;50.356;30.894;2023-09-19T13:00:16;100301.42;;;28.18;30.25
43681;BME280;29281;50.356;30.894;2023-09-19T13:01:26;100296.86;;;27.99;29.65
43681;BME280;29281;50.356;30.894;2023-09-19T13:02:33;100297.12;;;27.84;29.53
43681;BME280;29281;50.356;30.894;2023-09-19T13:03:37;100300.51;;;27.73;30.19
43681;BME280;29281;50.356;30.894;2023-09-19T13:04:41;100302.61;;;27.78;29.83
43681;BME280;29281;50.356;30.894;2023-09-19T13:05:47;100302.18;;;27.54;30.09
43681;BME280;29281;50.356;30.894;2023-09-19T13:06:50;100291.93;;;27.56;29.36
43681;BME280;29281;50.356;30.894;2023-09-19T13:07:56;100300.51;;;27.66;29.12
43681;BME280;29281;50.356;30.894;2023-09-19T13:09:07;100281.86;;;27.63;29.25
43681;BME280;29281;50.356;30.894;2023-09-19T13:10:13;100291.27;;;27.68;29.87
43681;BME280;29281;50.356;30.894;2023-09-19T13:11:35;100289.51;;;27.99;30.95
43681;BME280;29281;50.356;30.894;2023-09-19T13:12:35;100285.77;;;27.94;30.06
43681;BME280;29281;50.356;30.894;2023-09-19T13:16:18;100281.23;;;27.61;30.48
43681;BME280;29281;50.356;30.894;2023-09-19T13:17:42;100284.14;;;27.73;30.83
43681;BME280;29281;50.356;30.894;2023-09-19T13:18:44;100288.30;;;27.82;29.98
43681;BME280;29281;50.356;30.894;2023-09-19T13:19:51;100283.63;;;27.96;30.41
43681;BME280;29281;50.356;30.894;2023-09-19T13:21:06;100284.73;;;27.82;30.08
43681;BME280;29281;50.356;30.894;2023-09-19T13:23:36;100278.44;;;27.81;30.20
43681;BME280;29281;50.356;30.894;2023-09-19T13:24:40;100268.09;;;28.03;30.72
43681;BME280;29281;50.356;30.894;2023-09-19T13:25:46;100272.59;;;27.71;29.85
43681;BME280;29281;50.356;30.894;2023-09-19T13:26:54;100274.44;;;27.84;30.17
43681;BME280;29281;50.356;30.894;2023-09-19T13:27:58;100274.23;;;27.92;30.81
43681;BME280;29281;50.356;30.894;2023-09-19T13:29:04;100279.06;;;27.83;30.38
43681;BME280;29281;50.356;30.894;2023-09-19T13:30:08;100269.18;;;27.95;30.60
43681;BME280;29281;50.356;30.894;2023-09-19T13:31:13;100270.61;;;27.98;30.52
43681;BME280;29281;50.356;30.894;2023-09-19T13:32:18;100263.52;;;27.84;30.75
43681;BME280;29281;50.356;30.894;2023-09-19T13:33:22;100267.66;;;28.06;30.99
43681;BME280;29281;50.356;30.894;2023-09-19T13:34:27;100262.56;;;28.16;30.78
43681;BME280;29281;50.356;30.894;2023-09-19T13:35:36;100263.47;;;28.04;30.28
43681;BME280;29281;50.356;30.894;2023-09-19T13:36:44;100261.16;;;28.00;30.89
43681;BME280;29281;50.356;30.894;2023-09-19T13:37:48;100257.59;;;28.00;30.53
43681;BME280;29281;50.356;30.894;2023-09-19T13:38:53;100266.19;;;28.10;30.58
43681;BME280;29281;50.356;30.894;2023-09-19T13:39:58;100266.20;;;28.04;30.39
43681;BME280;29281;50.356;30.894;2023-09-19T13:41:05;100261.59;;;27.97;30.48
43681;BME280;29281;50.356;30.894;2023-09-19T13:42:13;100262.42;;;27.98;29.74
43681;BME280;29281;50.356;30.894;2023-09-19T13:43:20;100259.70;;;27.98;30.51